Concordia, Missouri
Current Conditions -  °F | °C
As of 10:58 AM on Monday 24 Nov 2014 (Local Time) from KSZL Reporting Station
Overcast Overcast  
Wind Chill: 28°   Ceiling: 3700
Heat Index: 37°   Visibility: 10mi
Dew Point: 24°   Wind: 15mph
Humidity: 60%   Direction: 270°W
Pressure: 29.74"   Gusts: 22mph
Location:  38.98°N, 93.57°W
Report Text: KSZL 241658Z 27013G19KT 10SM OVC037 03/M04 A2974 RMK AO2A SLP078 T00281042 $
Loading
Personal Weather Stations






























Interactive Weather Map New forecast layout! Learn more

10-Day Weather Forecast

Advertisements
Track Severe Weather on mobile